Time;durP1;ratioP1;P1;durP2;ratioP2;P2;SDS_P1;SDS_P2;PMS_P1;PMS_P2;Temp;Humidity;BMP_temperature;BMP_pressure;BME280_temperature;BME280_humidity;BME280_pressure;Samples;Min_cycle;Max_cycle;Signal;HPM_P1;HPM_P2
2023/03/17 00:01:04;;;;;;;76.35;35.78;;;;;;;6.36;54.81;101401.22;5093337;28;20040;-58
2023/03/17 00:03:34;;;;;;;81.38;38.05;;;;;;;6.40;54.66;101401.25;5093607;28;20407;-56
2023/03/17 00:06:00;;;;;;;92.03;41.50;;;;;;;6.46;54.56;101397.84;5092969;28;20035;-56
2023/03/17 00:08:32;;;;;;;78.53;38.10;;;;;;;6.37;54.60;101395.13;5093834;28;20044;-56
2023/03/17 00:10:58;;;;;;;83.40;40.05;;;;;;;6.43;54.71;101392.59;5091512;28;20036;-58
2023/03/17 00:13:24;;;;;;;82.00;37.80;;;;;;;6.46;54.63;101396.97;5094295;28;20043;-57
2023/03/17 00:16:00;;;;;;;87.50;40.55;;;;;;;6.52;54.44;101399.66;5080082;28;20061;-56
2023/03/17 00:18:26;;;;;;;89.97;41.35;;;;;;;6.47;54.51;101388.28;5087566;28;20084;-57
2023/03/17 00:20:52;;;;;;;85.65;40.33;;;;;;;6.51;54.43;101387.47;5093389;28;20103;-58
2023/03/17 00:23:20;;;;;;;87.40;39.63;;;;;;;6.58;54.50;101392.78;5093730;28;20497;-57
2023/03/17 00:25:47;;;;;;;87.45;40.35;;;;;;;6.66;54.27;101385.00;5093614;28;20778;-58
2023/03/17 00:28:19;;;;;;;96.45;40.78;;;;;;;6.73;54.16;101385.94;5092452;28;20044;-57
2023/03/17 00:30:47;;;;;;;84.72;39.47;;;;;;;6.75;53.99;101381.63;5092757;28;20042;-57
2023/03/17 00:33:15;;;;;;;89.28;40.20;;;;;;;6.77;53.88;101385.97;5093742;28;20044;-57
2023/03/17 00:35:42;;;;;;;95.20;43.47;;;;;;;6.76;54.02;101379.00;5093555;28;20028;-57
2023/03/17 00:38:15;;;;;;;109.05;48.78;;;;;;;6.71;54.04;101369.41;5093195;28;20400;-57
2023/03/17 00:40:41;;;;;;;110.85;47.55;;;;;;;6.70;54.16;101370.22;5092828;28;20491;-57
2023/03/17 00:43:07;;;;;;;114.65;48.72;;;;;;;6.72;54.18;101355.47;5085076;28;20123;-57
2023/03/17 00:45:33;;;;;;;112.38;49.13;;;;;;;6.71;54.13;101356.34;5085276;28;20173;-57
2023/03/17 00:47:59;;;;;;;129.80;56.08;;;;;;;6.74;54.12;101369.41;5093385;28;20032;-57
2023/03/17 00:50:26;;;;;;;159.48;70.35;;;;;;;6.54;54.73;101370.09;5093269;28;20490;-57
2023/03/17 00:52:56;;;;;;;156.00;65.88;;;;;;;6.56;54.70;101368.38;5092849;28;20024;-57
2023/03/17 00:55:24;;;;;;;138.88;57.45;;;;;;;6.52;54.77;101370.94;5093357;28;20032;-56
2023/03/17 00:57:49;;;;;;;131.43;58.53;;;;;;;6.53;54.80;101372.69;5093153;28;20456;-56
2023/03/17 01:00:25;;;;;;;144.23;62.70;;;;;;;6.53;54.72;101368.31;5093245;28;20150;-57
2023/03/17 01:02:52;;;;;;;130.07;55.72;;;;;;;6.60;54.62;101377.97;5092897;28;20478;-57
2023/03/17 01:05:18;;;;;;;163.63;72.53;;;;;;;6.49;54.83;101392.66;5092047;28;20460;-57
2023/03/17 01:07:47;;;;;;;147.82;66.38;;;;;;;6.41;55.11;101394.31;5092840;28;20032;-58
2023/03/17 01:10:17;;;;;;;159.48;69.35;;;;;;;6.40;55.04;101389.94;5088442;28;20051;-58
2023/03/17 01:12:44;;;;;;;163.15;72.70;;;;;;;6.23;55.59;101383.66;5080580;28;20024;-58
2023/03/17 01:15:11;;;;;;;123.35;56.10;;;;;;;6.10;56.12;101385.22;5092230;28;20059;-57
2023/03/17 01:17:38;;;;;;;120.75;53.45;;;;;;;6.22;55.84;101376.66;5091887;28;20119;-58
2023/03/17 01:20:06;;;;;;;127.38;55.33;;;;;;;6.33;55.65;101380.28;5090655;28;20459;-57
2023/03/17 01:22:31;;;;;;;114.72;48.10;;;;;;;6.39;55.28;101376.03;5091090;28;20035;-58
2023/03/17 01:24:57;;;;;;;121.45;52.42;;;;;;;6.44;55.18;101383.03;5089398;28;20035;-58
2023/03/17 01:27:23;;;;;;;121.47;53.28;;;;;;;6.33;55.44;101375.94;5091593;28;20086;-57
2023/03/17 01:29:52;;;;;;;125.18;55.92;;;;;;;6.36;55.32;101364.66;5091166;28;20039;-58
2023/03/17 01:32:18;;;;;;;136.02;61.70;;;;;;;6.31;55.37;101359.41;5090174;28;20032;-58
2023/03/17 01:34:44;;;;;;;112.30;51.55;;;;;;;6.28;55.39;101358.50;5090232;28;20093;-56
2023/03/17 01:37:10;;;;;;;110.50;50.47;;;;;;;6.29;55.52;101355.00;5088751;28;20044;-57
2023/03/17 01:39:35;;;;;;;96.97;45.33;;;;;;;6.22;55.81;101350.56;5080583;28;20127;-57
2023/03/17 01:42:01;;;;;;;99.40;46.80;;;;;;;6.21;55.99;101352.31;5086923;28;20453;-56
2023/03/17 01:44:26;;;;;;;109.53;50.55;;;;;;;6.21;56.01;101351.44;5089678;28;20085;-57
2023/03/17 01:46:53;;;;;;;86.32;40.70;;;;;;;6.25;56.17;101342.78;5090641;28;20032;-57
2023/03/17 01:49:21;;;;;;;94.93;41.97;;;;;;;6.20;56.06;101337.53;5090429;28;20028;-57
2023/03/17 01:52:07;;;;;;;79.53;38.42;;;;;;;6.25;56.08;101342.78;5089939;28;20036;-58
2023/03/17 01:54:38;;;;;;;73.10;36.67;;;;;;;6.33;55.88;101343.75;5102918;28;20430;-57
2023/03/17 01:57:25;;;;;;;69.70;34.05;;;;;;;6.41;55.87;101345.56;5089846;28;20028;-57
2023/03/17 02:00:04;;;;;;;78.53;35.00;;;;;;;6.40;55.68;101342.97;5091571;28;20036;-56
2023/03/17 02:02:33;;;;;;;84.10;40.38;;;;;;;6.39;55.62;101328.16;5087719;28;20040;-56
2023/03/17 02:04:59;;;;;;;78.55;36.92;;;;;;;6.43;55.70;101335.16;5090548;28;20028;-57
2023/03/17 02:07:26;;;;;;;71.22;34.53;;;;;;;6.44;55.84;101334.31;5079292;28;20051;-57
2023/03/17 02:09:53;;;;;;;66.82;31.75;;;;;;;6.53;55.64;101329.16;5082660;28;20032;-56
2023/03/17 02:12:21;;;;;;;59.90;30.40;;;;;;;6.52;55.67;101330.03;5091940;28;20036;-56
2023/03/17 02:14:46;;;;;;;56.30;27.38;;;;;;;6.57;55.66;101343.13;5089661;28;20062;-56
2023/03/17 02:17:13;;;;;;;57.38;26.45;;;;;;;6.64;55.71;101331.88;5091629;28;20472;-60
2023/03/17 02:19:39;;;;;;;59.45;27.52;;;;;;;6.70;55.68;101333.66;5091354;28;20111;-57
2023/03/17 02:22:04;;;;;;;56.22;26.05;;;;;;;6.57;55.84;101328.34;5084760;28;20042;-58
2023/03/17 02:24:42;;;;;;;50.45;25.30;;;;;;;6.61;56.03;101326.63;5089090;28;20048;-57
2023/03/17 02:27:13;;;;;;;54.45;25.98;;;;;;;6.60;55.77;101322.28;5086259;28;20024;-57
2023/03/17 02:29:40;;;;;;;55.33;26.67;;;;;;;6.60;55.72;101317.06;5091148;28;20032;-56
2023/03/17 02:32:06;;;;;;;53.95;25.00;;;;;;;6.59;56.10;101307.47;5093335;28;20032;-57
2023/03/17 02:34:32;;;;;;;50.53;25.60;;;;;;;6.60;55.96;101309.22;5088910;28;20036;-57
2023/03/17 02:36:58;;;;;;;46.20;23.00;;;;;;;6.69;55.92;101316.25;5083496;28;20039;-56
2023/03/17 02:39:24;;;;;;;41.53;22.30;;;;;;;6.71;55.89;101312.81;5094361;28;20493;-55
2023/03/17 02:41:50;;;;;;;50.65;25.25;;;;;;;6.77;55.84;101299.78;5093816;28;21407;-56
2023/03/17 02:44:16;;;;;;;40.55;22.08;;;;;;;6.75;55.87;101305.88;5094836;28;20032;-55
2023/03/17 02:46:42;;;;;;;36.33;18.52;;;;;;;6.73;55.94;101299.75;5094554;28;20398;-55
2023/03/17 02:49:08;;;;;;;28.58;15.57;;;;;;;6.72;56.05;101298.00;5094727;28;20042;-55
2023/03/17 02:51:34;;;;;;;27.15;15.48;;;;;;;6.77;55.95;101288.47;5094878;28;20035;-56
2023/03/17 02:53:59;;;;;;;29.38;16.90;;;;;;;6.89;55.72;101288.56;5093258;28;20543;-57
2023/03/17 02:56:25;;;;;;;27.95;14.27;;;;;;;6.88;55.85;101289.44;5093803;28;20119;-56
2023/03/17 02:58:51;;;;;;;26.95;15.27;;;;;;;6.97;55.68;101301.69;5092380;28;20063;-57
2023/03/17 03:01:17;;;;;;;29.50;15.02;;;;;;;6.88;55.75;101302.50;5094348;28;20092;-57
2023/03/17 03:03:42;;;;;;;30.90;14.05;;;;;;;6.84;55.99;101305.94;5080939;28;20036;-58
2023/03/17 03:06:08;;;;;;;28.88;14.55;;;;;;;6.87;55.90;101303.38;5089939;28;20039;-57
2023/03/17 03:08:33;;;;;;;26.50;13.95;;;;;;;6.86;55.99;101301.59;5092248;28;20039;-57
2023/03/17 03:11:01;;;;;;;31.13;16.02;;;;;;;6.86;55.95;101299.88;5095143;28;20032;-56
2023/03/17 03:13:27;;;;;;;30.83;14.85;;;;;;;6.84;56.13;101296.38;5094308;28;20388;-57
2023/03/17 03:15:52;;;;;;;26.55;14.80;;;;;;;6.84;56.28;101295.50;5092349;28;20035;-57
2023/03/17 03:18:18;;;;;;;28.17;15.73;;;;;;;6.87;56.16;101296.41;5095096;28;20110;-56
2023/03/17 03:20:44;;;;;;;27.25;14.40;;;;;;;6.85;56.29;101294.63;5094396;28;20035;-54
2023/03/17 03:23:11;;;;;;;25.20;15.27;;;;;;;6.93;56.16;101302.53;5092192;28;20051;-56
2023/03/17 03:25:37;;;;;;;28.08;14.73;;;;;;;6.99;56.11;101307.81;5092582;28;20486;-56
2023/03/17 03:28:05;;;;;;;27.38;13.77;;;;;;;7.03;56.05;101315.69;5093890;28;20472;-55
2023/03/17 03:30:32;;;;;;;22.83;13.07;;;;;;;6.99;56.31;101321.75;5087192;28;20051;-57
2023/03/17 03:32:57;;;;;;;27.88;13.82;;;;;;;7.03;56.23;101318.31;5084073;28;20472;-56
2023/03/17 03:35:23;;;;;;;19.60;11.82;;;;;;;7.04;56.27;101306.09;5093510;28;20032;-56
2023/03/17 03:37:49;;;;;;;20.48;10.73;;;;;;;7.12;56.15;101315.75;5094358;28;20036;-56
2023/03/17 03:40:14;;;;;;;19.42;10.63;;;;;;;7.18;56.13;101311.41;5091968;28;20449;-55
2023/03/17 03:42:40;;;;;;;18.75;10.90;;;;;;;7.25;56.02;101310.59;5093772;28;20040;-56
2023/03/17 03:45:06;;;;;;;19.25;10.63;;;;;;;7.27;56.15;101301.03;5091318;28;20039;-56
2023/03/17 03:47:32;;;;;;;21.95;11.25;;;;;;;7.28;56.13;101308.88;5092219;28;20036;-56
2023/03/17 03:49:57;;;;;;;21.40;10.48;;;;;;;7.30;56.13;101316.72;5091810;28;20097;-57
2023/03/17 03:52:23;;;;;;;21.60;10.82;;;;;;;7.33;56.17;101328.09;5094465;28;20039;-55
2023/03/17 03:54:48;;;;;;;17.35;10.88;;;;;;;7.37;56.13;101329.84;5091560;28;20032;-58
2023/03/17 03:57:14;;;;;;;18.27;11.02;;;;;;;7.40;55.97;101319.41;5091670;28;20450;-57
2023/03/17 03:59:39;;;;;;;19.90;10.85;;;;;;;7.37;56.09;101318.53;5080674;28;20119;-58
2023/03/17 04:02:05;;;;;;;17.73;10.48;;;;;;;7.39;56.35;101314.19;5087230;28;20034;-57
2023/03/17 04:04:31;;;;;;;19.13;11.05;;;;;;;7.38;56.29;101312.41;5091437;28;20036;-57
2023/03/17 04:06:57;;;;;;;21.58;11.23;;;;;;;7.35;56.46;101312.44;5092396;28;20464;-57
2023/03/17 04:09:22;;;;;;;16.13;10.32;;;;;;;7.41;56.33;101313.31;5092685;28;20485;-56
2023/03/17 04:11:48;;;;;;;21.58;11.40;;;;;;;7.44;56.19;101314.22;5093105;28;20036;-57
2023/03/17 04:14:13;;;;;;;18.88;10.13;;;;;;;7.37;56.49;101303.72;5092333;28;20398;-58
2023/03/17 04:16:39;;;;;;;15.95;9.35;;;;;;;7.40;56.34;101313.31;5092182;28;20075;-57
2023/03/17 04:19:05;;;;;;;17.40;9.95;;;;;;;7.40;56.58;101297.63;5091551;28;20064;-57
2023/03/17 04:21:31;;;;;;;14.88;8.82;;;;;;;7.45;56.53;101302.88;5091860;28;20052;-57
2023/03/17 04:23:56;;;;;;;15.75;9.00;;;;;;;7.48;56.53;101301.16;5093130;28;20028;-57
2023/03/17 04:26:22;;;;;;;19.48;10.48;;;;;;;7.59;56.34;101299.50;5086165;28;20131;-57
2023/03/17 04:28:48;;;;;;;14.77;8.52;;;;;;;7.65;56.19;101296.88;5080633;28;20119;-58
2023/03/17 04:31:14;;;;;;;15.85;8.73;;;;;;;7.66;56.10;101289.94;5092885;28;20028;-57
2023/03/17 04:33:39;;;;;;;14.13;8.50;;;;;;;7.70;56.04;101285.56;5086032;28;20051;-57
2023/03/17 04:36:06;;;;;;;15.50;9.70;;;;;;;7.70;56.17;101282.94;5069539;28;20138;-57
2023/03/17 04:38:32;;;;;;;14.88;8.73;;;;;;;7.67;56.05;101276.00;5073457;28;20048;-57
2023/03/17 04:40:58;;;;;;;17.75;9.88;;;;;;;7.65;56.12;101273.34;5091844;28;20055;-57
2023/03/17 04:43:23;;;;;;;19.85;11.30;;;;;;;7.67;56.28;101272.50;5089081;28;20070;-56
2023/03/17 04:45:49;;;;;;;15.85;8.85;;;;;;;7.65;56.19;101268.13;5092996;28;20506;-57
2023/03/17 04:48:15;;;;;;;19.02;10.52;;;;;;;7.53;56.53;101269.81;5092802;28;20109;-57
2023/03/17 04:50:41;;;;;;;18.17;10.40;;;;;;;7.58;56.33;101276.81;5091531;28;20055;-57
2023/03/17 04:53:08;;;;;;;16.30;10.15;;;;;;;7.58;56.39;101287.28;5091738;28;20036;-57
2023/03/17 04:55:34;;;;;;;16.75;10.65;;;;;;;7.60;56.30;101284.66;5090061;28;20032;-58
2023/03/17 04:57:59;;;;;;;27.23;15.15;;;;;;;7.61;56.40;101291.63;5085152;28;20042;-58
2023/03/17 05:00:25;;;;;;;33.35;18.38;;;;;;;7.61;56.34;101286.41;5092031;28;20032;-57
2023/03/17 05:02:50;;;;;;;28.63;16.63;;;;;;;7.57;56.44;101282.91;5091018;28;20079;-57
2023/03/17 05:05:16;;;;;;;21.60;12.57;;;;;;;7.59;56.42;101288.16;5092492;28;20039;-57
2023/03/17 05:07:43;;;;;;;20.38;12.23;;;;;;;7.54;56.63;101279.38;5090793;28;20031;-57
2023/03/17 05:10:10;;;;;;;24.25;14.52;;;;;;;7.57;56.41;101295.97;5092307;28;20512;-55
2023/03/17 05:12:35;;;;;;;27.05;16.98;;;;;;;7.57;56.42;101290.75;5090475;28;20055;-58
2023/03/17 05:15:01;;;;;;;31.50;18.98;;;;;;;7.65;56.38;101293.41;5089622;28;20055;-57
2023/03/17 05:17:26;;;;;;;45.05;25.50;;;;;;;7.66;56.35;101289.94;5088794;28;20044;-55
2023/03/17 05:19:52;;;;;;;35.92;20.85;;;;;;;7.69;56.31;101292.56;5088775;28;20036;-56
2023/03/17 05:22:18;;;;;;;40.05;22.98;;;;;;;7.78;56.12;101289.09;5092238;28;20039;-58
2023/03/17 05:24:44;;;;;;;29.52;16.38;;;;;;;7.76;56.13;101290.84;5092372;28;20149;-57
2023/03/17 05:27:10;;;;;;;35.83;21.88;;;;;;;7.84;55.97;101283.91;5083177;28;20446;-57
2023/03/17 05:29:35;;;;;;;34.13;20.70;;;;;;;7.85;55.88;101276.03;5090493;28;20036;-56
2023/03/17 05:32:01;;;;;;;39.30;23.33;;;;;;;7.75;56.33;101278.63;5092585;28;20043;-56
2023/03/17 05:34:26;;;;;;;34.95;21.05;;;;;;;7.87;56.03;101283.91;5093248;28;20032;-57
2023/03/17 05:36:52;;;;;;;27.70;15.70;;;;;;;7.91;55.97;101277.81;5084781;28;20036;-57
2023/03/17 05:39:17;;;;;;;43.95;19.45;;;;;;;7.90;55.86;101263.88;5090895;28;20052;-57
2023/03/17 05:41:43;;;;;;;36.20;17.77;;;;;;;8.01;55.72;101266.50;5088329;28;20044;-57
2023/03/17 05:44:09;;;;;;;34.58;15.55;;;;;;;7.95;55.94;101266.50;5090400;28;20097;-54
2023/03/17 05:46:35;;;;;;;32.75;15.80;;;;;;;7.96;55.85;101257.78;5090940;28;20475;-56
2023/03/17 05:49:01;;;;;;;29.83;15.20;;;;;;;8.03;55.78;101262.16;5090500;28;20131;-57
2023/03/17 05:51:26;;;;;;;32.45;17.40;;;;;;;7.95;56.05;101263.00;5090324;28;20040;-57
2023/03/17 05:53:52;;;;;;;32.92;16.77;;;;;;;8.04;55.79;101261.28;5088314;28;20119;-57
2023/03/17 05:56:17;;;;;;;28.63;14.52;;;;;;;8.19;55.62;101264.81;5091461;28;20382;-57
2023/03/17 05:58:43;;;;;;;42.70;20.55;;;;;;;8.22;55.51;101264.81;5090813;28;20032;-58
2023/03/17 06:01:08;;;;;;;34.60;18.08;;;;;;;8.26;55.27;101269.19;5091212;28;20089;-58
2023/03/17 06:03:37;;;;;;;30.15;16.05;;;;;;;8.31;55.14;101267.47;5093443;28;20482;-57
2023/03/17 06:06:02;;;;;;;32.22;17.20;;;;;;;8.35;55.06;101266.59;5094842;28;20047;-58
2023/03/17 06:08:27;;;;;;;31.13;17.23;;;;;;;8.37;55.20;101270.09;5094777;28;20032;-58
2023/03/17 06:10:53;;;;;;;24.83;14.60;;;;;;;8.48;55.03;101289.34;5095468;28;20032;-58
2023/03/17 06:13:18;;;;;;;25.88;14.07;;;;;;;8.52;54.92;101285.84;5095116;28;20040;-58
2023/03/17 06:15:47;;;;;;;22.55;12.73;;;;;;;8.60;54.73;101284.09;5096915;28;20040;-59
2023/03/17 06:18:12;;;;;;;23.83;12.30;;;;;;;8.64;54.65;101288.47;5096580;28;20035;-58
2023/03/17 06:20:38;;;;;;;21.15;13.75;;;;;;;8.72;54.61;101283.25;5096588;28;20028;-58
2023/03/17 06:23:03;;;;;;;23.13;12.77;;;;;;;8.79;54.64;101284.13;5094400;28;20105;-58
2023/03/17 06:25:29;;;;;;;20.83;13.48;;;;;;;8.86;54.31;101283.25;5096307;28;20036;-58
2023/03/17 06:27:55;;;;;;;26.73;15.10;;;;;;;8.92;54.16;101287.63;5091855;28;20032;-58
2023/03/17 06:30:21;;;;;;;28.60;15.75;;;;;;;9.03;54.11;101293.72;5061789;28;20131;-58
2023/03/17 06:32:47;;;;;;;21.08;13.50;;;;;;;9.09;54.06;101293.72;5075323;28;20040;-58
2023/03/17 06:35:12;;;;;;;20.52;13.13;;;;;;;9.25;53.79;101295.44;5076269;28;20040;-58
2023/03/17 06:37:38;;;;;;;25.52;15.27;;;;;;;9.33;53.59;101293.66;5076033;28;20029;-58
2023/03/17 06:40:08;;;;;;;26.50;15.75;;;;;;;9.39;53.41;101279.69;5076164;28;20158;-58
2023/03/17 06:42:33;;;;;;;24.80;15.55;;;;;;;9.33;53.61;101282.31;5076365;28;20495;-58
2023/03/17 06:44:59;;;;;;;23.77;14.00;;;;;;;9.36;53.57;101277.06;5076412;28;20029;-58
2023/03/17 06:47:24;;;;;;;19.90;12.45;;;;;;;9.37;53.53;101282.31;5076335;28;20032;-58
2023/03/17 06:49:50;;;;;;;26.13;14.95;;;;;;;9.49;53.43;101284.00;5075284;28;20035;-58
2023/03/17 06:52:15;;;;;;;21.80;13.45;;;;;;;9.55;53.46;101281.38;5076575;28;20533;-58
2023/03/17 06:54:41;;;;;;;22.55;14.02;;;;;;;9.70;53.04;101282.22;5076154;28;20036;-58
2023/03/17 06:57:08;;;;;;;21.88;13.55;;;;;;;9.72;53.19;101278.69;5074668;28;20044;-58
2023/03/17 06:59:34;;;;;;;19.95;12.48;;;;;;;9.95;52.76;101290.88;5075941;28;20040;-57
2023/03/17 07:01:59;;;;;;;19.25;12.15;;;;;;;10.03;52.50;101289.06;5095293;28;20040;-58
2023/03/17 07:04:25;;;;;;;20.60;13.45;;;;;;;10.09;52.45;101289.94;5094535;28;20032;-58
2023/03/17 07:06:51;;;;;;;18.02;12.32;;;;;;;10.11;52.36;101306.53;5094777;28;20115;-58
2023/03/17 07:09:16;;;;;;;19.00;12.05;;;;;;;10.18;52.24;101301.25;5094390;28;20036;-58
2023/03/17 07:11:42;;;;;;;21.60;11.90;;;;;;;10.23;52.12;101297.72;5095869;28;20040;-57
2023/03/17 07:14:07;;;;;;;22.13;13.65;;;;;;;10.28;52.09;101300.34;5095897;28;20032;-57
2023/03/17 07:16:33;;;;;;;19.83;13.38;;;;;;;10.35;51.94;101302.06;5096235;28;20460;-58
2023/03/17 07:19:00;;;;;;;22.88;13.90;;;;;;;10.47;51.80;101301.09;5096037;28;20047;-58
2023/03/17 07:21:26;;;;;;;23.98;14.60;;;;;;;10.57;51.92;101295.78;5095748;28;20094;-57
2023/03/17 07:23:52;;;;;;;22.13;13.48;;;;;;;10.67;51.48;101296.59;5095722;28;20468;-59
2023/03/17 07:26:18;;;;;;;21.90;13.55;;;;;;;10.73;51.44;101290.38;5081952;28;20032;-58
2023/03/17 07:28:43;;;;;;;20.35;13.50;;;;;;;10.82;51.28;101300.84;5092073;28;20407;-58
2023/03/17 07:31:12;;;;;;;19.67;12.75;;;;;;;10.90;51.22;101299.03;5094942;28;20073;-58
2023/03/17 07:33:38;;;;;;;22.00;13.32;;;;;;;10.98;51.08;101297.22;5095845;28;20525;-58
2023/03/17 07:36:06;;;;;;;18.27;12.68;;;;;;;11.09;50.79;101300.63;5094114;28;20040;-57
2023/03/17 07:38:32;;;;;;;22.15;13.52;;;;;;;11.17;50.74;101286.50;5094445;28;20405;-58
2023/03/17 07:40:58;;;;;;;21.25;12.50;;;;;;;11.30;50.50;101293.41;5095470;28;20032;-59
2023/03/17 07:43:24;;;;;;;23.52;13.98;;;;;;;11.36;50.35;101288.06;5095554;28;20165;-58
2023/03/17 07:45:50;;;;;;;20.60;13.57;;;;;;;11.36;50.30;101274.91;5095343;28;20107;-58
2023/03/17 07:48:17;;;;;;;23.63;13.70;;;;;;;11.49;50.29;101278.28;5095512;28;20028;-58
2023/03/17 07:50:43;;;;;;;19.88;12.82;;;;;;;11.66;49.89;101275.47;5095381;28;20032;-59
2023/03/17 07:53:09;;;;;;;21.00;12.82;;;;;;;11.68;49.87;101271.03;5086621;28;20040;-57
2023/03/17 07:55:35;;;;;;;18.20;12.02;;;;;;;11.71;49.67;101271.00;5086494;28;20043;-58
2023/03/17 07:58:01;;;;;;;21.20;11.80;;;;;;;11.88;49.40;101271.69;5093755;28;20047;-57
2023/03/17 08:00:27;;;;;;;23.40;12.77;;;;;;;11.99;49.35;101267.16;5095336;28;20040;-59
2023/03/17 08:02:53;;;;;;;17.88;11.57;;;;;;;11.97;49.26;101266.34;5094993;28;20059;-59
2023/03/17 08:05:18;;;;;;;20.17;11.63;;;;;;;12.02;49.10;101264.50;5093822;28;20063;-58
2023/03/17 08:07:44;;;;;;;17.55;12.40;;;;;;;11.99;49.01;101275.06;5094872;28;20059;-58
2023/03/17 08:10:12;;;;;;;18.85;11.70;;;;;;;12.09;48.70;101262.66;5095102;28;20474;-59
2023/03/17 08:12:37;;;;;;;20.02;11.88;;;;;;;12.15;48.53;101259.06;5094810;28;20039;-59
2023/03/17 08:15:03;;;;;;;19.10;12.27;;;;;;;12.03;48.58;101262.72;5094056;28;20111;-58
2023/03/17 08:17:28;;;;;;;19.77;11.70;;;;;;;11.98;48.67;101257.53;5094764;28;20528;-57
2023/03/17 08:19:55;;;;;;;28.45;13.98;;;;;;;12.06;48.67;101245.13;5079568;28;20568;-59
2023/03/17 08:22:21;;;;;;;21.95;13.45;;;;;;;12.23;48.35;101244.88;5080772;28;20044;-58
2023/03/17 08:24:47;;;;;;;17.15;12.15;;;;;;;12.39;47.83;101242.00;5091221;28;20478;-58
2023/03/17 08:27:13;;;;;;;18.27;11.73;;;;;;;12.58;47.45;101238.19;5092174;28;20042;-57
2023/03/17 08:29:39;;;;;;;18.10;11.70;;;;;;;12.63;47.19;101236.34;5093183;28;20044;-58
2023/03/17 08:32:05;;;;;;;19.33;11.77;;;;;;;12.74;46.65;101230.91;5093174;28;20387;-58
2023/03/17 08:34:31;;;;;;;19.40;11.63;;;;;;;12.77;46.63;101228.22;5094560;28;20386;-58
2023/03/17 08:36:57;;;;;;;17.33;11.95;;;;;;;12.78;46.52;101219.41;5094223;28;20107;-58
2023/03/17 08:39:23;;;;;;;18.15;11.32;;;;;;;12.68;46.61;101225.72;5094553;28;20060;-59
2023/03/17 08:41:48;;;;;;;16.20;10.68;;;;;;;12.87;46.25;101213.97;5092898;28;20032;-58
2023/03/17 08:44:14;;;;;;;18.42;10.80;;;;;;;12.90;46.05;101213.91;5094264;28;20049;-58
2023/03/17 08:46:40;;;;;;;17.90;10.95;;;;;;;13.05;45.93;101221.56;5094279;28;20032;-58
2023/03/17 08:49:06;;;;;;;15.85;10.48;;;;;;;13.17;45.62;101224.88;5085617;28;20075;-59
2023/03/17 08:51:33;;;;;;;19.58;11.60;;;;;;;13.35;45.24;101221.03;5081656;28;20036;-58
2023/03/17 08:53:59;;;;;;;16.80;10.48;;;;;;;13.41;44.83;101221.78;5093940;28;20107;-57
2023/03/17 08:56:25;;;;;;;15.75;9.73;;;;;;;13.38;44.96;101219.19;5094206;28;20040;-58
2023/03/17 08:58:51;;;;;;;16.20;10.30;;;;;;;13.52;44.63;101213.63;5075413;28;20131;-58
2023/03/17 09:01:19;;;;;;;21.67;11.88;;;;;;;13.46;44.18;101214.63;5089646;28;20470;-57
2023/03/17 09:03:46;;;;;;;15.55;9.32;;;;;;;13.52;44.26;101214.53;5091993;28;20028;-58
2023/03/17 09:06:12;;;;;;;16.42;9.77;;;;;;;13.57;43.96;101206.50;5092750;28;20020;-58
2023/03/17 09:08:43;;;;;;;18.70;9.95;;;;;;;13.65;43.71;101190.50;5092716;28;20040;-59
2023/03/17 09:11:12;;;;;;;15.93;9.70;;;;;;;13.68;43.35;101193.03;5092820;28;20455;-59
2023/03/17 09:13:38;;;;;;;17.08;9.18;;;;;;;13.70;43.69;101185.97;5091579;28;20039;-58
2023/03/17 09:16:04;;;;;;;18.23;9.73;;;;;;;13.68;43.33;101195.69;5092992;28;20044;-58
2023/03/17 09:18:31;;;;;;;20.73;13.15;;;;;;;13.60;43.53;101181.78;5093852;28;20476;-58
2023/03/17 09:20:57;;;;;;;21.80;11.95;;;;;;;13.59;43.06;101188.84;5092535;28;20028;-58
2023/03/17 09:23:23;;;;;;;22.45;12.15;;;;;;;13.59;43.20;101185.31;5093978;28;20077;-58
2023/03/17 09:25:50;;;;;;;16.50;10.43;;;;;;;13.67;42.97;101176.34;5092453;28;20431;-58
2023/03/17 09:28:16;;;;;;;15.27;8.48;;;;;;;13.71;42.90;101190.34;5092270;28;20032;-58
2023/03/17 09:30:42;;;;;;;15.77;8.70;;;;;;;13.69;42.78;101185.09;5092586;28;20411;-58
2023/03/17 09:33:09;;;;;;;15.13;8.70;;;;;;;13.81;42.46;101178.69;5091953;28;20043;-58
2023/03/17 09:35:35;;;;;;;19.00;9.20;;;;;;;13.91;42.37;101180.19;5076744;28;20483;-58
2023/03/17 09:38:00;;;;;;;14.95;8.55;;;;;;;13.93;42.30;101180.19;5076351;28;20063;-58
2023/03/17 09:40:35;;;;;;;17.85;10.27;;;;;;;13.94;41.27;101184.56;5097954;28;20035;-58
2023/03/17 09:43:09;;;;;;;19.70;11.20;;;;;;;13.94;41.48;101190.69;5096647;28;20096;-58
2023/03/17 09:45:39;;;;;;;15.10;9.82;;;;;;;13.99;41.25;101183.53;5097522;28;20093;-58
2023/03/17 09:48:35;;;;;;;17.42;9.77;;;;;;;14.05;40.73;101175.47;5095718;28;20471;-58
2023/03/17 09:51:07;;;;;;;25.25;15.50;;;;;;;14.22;41.54;101176.84;5089004;28;20040;-58
2023/03/17 09:53:34;;;;;;;27.48;16.90;;;;;;;14.24;41.70;101173.28;5097653;28;20032;-59
2023/03/17 09:56:15;;;;;;;40.72;22.25;;;;;;;14.06;40.30;101163.13;5097148;28;20028;-58
2023/03/17 09:58:48;;;;;;;26.60;14.25;;;;;;;14.16;40.98;101167.31;5097073;28;20042;-59
2023/03/17 10:01:14;;;;;;;19.23;10.77;;;;;;;14.43;41.11;101163.09;5094998;28;20035;-59
2023/03/17 10:03:39;;;;;;;18.05;10.82;;;;;;;14.59;40.85;101147.75;5095737;28;20101;-58
2023/03/17 10:06:15;;;;;;;22.98;11.45;;;;;;;14.72;40.12;101153.56;5097192;28;20468;-59
2023/03/17 10:08:50;;;;;;;14.93;8.73;;;;;;;14.86;40.04;101150.56;5097303;28;20115;-58
2023/03/17 10:11:39;;;;;;;23.33;12.00;;;;;;;14.88;39.27;101139.06;5095283;28;20493;-58
2023/03/17 10:14:23;;;;;;;14.88;8.40;;;;;;;15.01;39.10;101140.44;5097251;28;20032;-58
2023/03/17 10:17:29;;;;;;;13.00;9.02;;;;;;;15.19;38.60;101143.47;5097052;28;20074;-58
2023/03/17 10:19:59;;;;;;;16.20;7.63;;;;;;;15.40;39.41;101136.66;5096381;28;20475;-58
2023/03/17 10:22:29;;;;;;;15.52;8.73;;;;;;;15.43;39.73;101137.44;5095822;28;20532;-58
2023/03/17 10:25:02;;;;;;;15.07;8.82;;;;;;;15.34;38.78;101121.84;5096002;28;20107;-58
2023/03/17 10:27:32;;;;;;;;;;;;;;;15.33;37.59;101116.59;5097160;28;20028;-58
2023/03/17 10:29:58;;;;;;;16.17;8.40;;;;;;;15.43;39.26;101110.09;5095960;28;19908;-58
2023/03/17 10:32:25;;;;;;;16.40;8.10;;;;;;;15.55;38.86;101103.56;5095568;28;20055;-58
2023/03/17 10:34:51;;;;;;;14.77;7.90;;;;;;;15.70;38.74;101109.28;5094327;28;20040;-59
2023/03/17 10:37:21;;;;;;;13.27;7.72;;;;;;;15.75;38.67;101107.34;5096545;28;20062;-58
2023/03/17 10:39:50;;;;;;;9.52;6.20;;;;;;;15.67;38.57;101113.81;5096720;28;20055;-58
2023/03/17 10:42:21;;;;;;;11.70;7.13;;;;;;;15.67;37.82;101093.47;5093496;28;20047;-58
2023/03/17 10:45:26;;;;;;;12.30;7.00;;;;;;;15.79;36.62;101091.38;5094276;28;20499;-58
2023/03/17 10:47:56;;;;;;;12.32;6.57;;;;;;;15.87;37.76;101089.34;5076745;28;20036;-58
2023/03/17 10:50:33;;;;;;;14.25;7.10;;;;;;;15.77;36.87;101088.78;5093569;28;20064;-58
2023/03/17 10:53:03;;;;;;;12.30;7.05;;;;;;;15.77;37.25;101078.19;5094424;28;20077;-58
2023/03/17 10:55:38;;;;;;;14.98;7.40;;;;;;;15.88;36.31;101070.75;5096194;28;20071;-58
2023/03/17 10:58:38;;;;;;;13.55;6.95;;;;;;;15.83;36.06;101062.06;5096240;28;20035;-58
2023/03/17 11:01:36;;;;;;;12.15;8.00;;;;;;;15.88;36.80;101062.81;5092786;28;20043;-58
2023/03/17 11:04:05;;;;;;;12.93;7.03;;;;;;;16.07;37.30;101060.41;5096354;28;20024;-58
2023/03/17 11:06:41;;;;;;;12.77;6.50;;;;;;;16.05;35.68;101050.78;5096292;28;20032;-58
2023/03/17 11:09:17;;;;;;;13.27;7.05;;;;;;;16.30;36.16;101049.00;5095916;28;20063;-58
2023/03/17 11:11:47;;;;;;;14.95;7.68;;;;;;;16.25;35.13;101025.31;5096071;28;20103;-58
2023/03/17 11:14:17;;;;;;;16.55;8.23;;;;;;;16.56;36.26;101026.03;5095155;28;20028;-58
2023/03/17 11:17:15;;;;;;;14.98;7.55;;;;;;;16.31;34.80;101023.34;5095994;28;20040;-58